Time;durP1;ratioP1;P1;durP2;ratioP2;P2;SDS_P1;SDS_P2;PMS_P1;PMS_P2;Temp;Humidity;BMP_temperature;BMP_pressure;BME280_temperature;BME280_humidity;BME280_pressure;Samples;Min_cycle;Max_cycle;Signal;HPM_P1;HPM_P2
2020/12/24 00:00:13;;;;;;;3.50;0.80;;;;;;;;;;4947686;29;20091;-63
2020/12/24 00:02:39;;;;;;;3.50;1.00;;;;;;;;;;4947435;29;20150;-63
2020/12/24 00:05:05;;;;;;;4.40;0.90;;;;;;;;;;4946988;29;20051;-63
2020/12/24 00:07:31;;;;;;;3.83;0.63;;;;;;;;;;4947166;29;20083;-62
2020/12/24 00:09:56;;;;;;;2.55;0.82;;;;;;;;;;4929980;29;20101;-63
2020/12/24 00:12:22;;;;;;;4.38;0.73;;;;;;;;;;4946417;29;20039;-64
2020/12/24 00:14:48;;;;;;;2.33;0.80;;;;;;;;;;4946663;29;20059;-63
2020/12/24 00:17:14;;;;;;;2.85;0.70;;;;;;;;;;4931912;29;20043;-63
2020/12/24 00:19:40;;;;;;;2.45;0.70;;;;;;;;;;4944251;29;20099;-63
2020/12/24 00:22:06;;;;;;;3.00;0.80;;;;;;;;;;4944597;29;20051;-63
2020/12/24 00:24:31;;;;;;;4.90;0.80;;;;;;;;;;4945392;29;20341;-62
2020/12/24 00:26:57;;;;;;;1.77;0.52;;;;;;;;;;4946609;29;20130;-63
2020/12/24 00:29:23;;;;;;;3.88;0.60;;;;;;;;;;4944573;29;20130;-63
2020/12/24 00:31:49;;;;;;;4.22;0.70;;;;;;;;;;4945906;29;20046;-63
2020/12/24 00:34:15;;;;;;;4.38;0.70;;;;;;;;;;4945759;29;20031;-63
2020/12/24 00:36:40;;;;;;;6.05;0.60;;;;;;;;;;4944290;29;20075;-63
2020/12/24 00:39:06;;;;;;;2.92;0.63;;;;;;;;;;4944140;29;20035;-63
2020/12/24 00:41:35;;;;;;;5.38;0.70;;;;;;;;;;4946005;29;20051;-63
2020/12/24 00:44:01;;;;;;;4.68;0.70;;;;;;;;;;4946200;29;20039;-62
2020/12/24 00:46:27;;;;;;;5.43;0.70;;;;;;;;;;4945767;29;20104;-63
2020/12/24 00:48:52;;;;;;;1.70;0.60;;;;;;;;;;4944077;29;20035;-62
2020/12/24 00:51:18;;;;;;;1.65;0.50;;;;;;;;;;4943472;29;20091;-62
2020/12/24 00:53:44;;;;;;;1.98;0.57;;;;;;;;;;4945151;29;20043;-62
2020/12/24 00:56:10;;;;;;;2.63;0.75;;;;;;;;;;4945969;29;20054;-62
2020/12/24 00:58:36;;;;;;;3.15;0.82;;;;;;;;;;4944565;29;20059;-62
2020/12/24 01:01:02;;;;;;;3.95;0.60;;;;;;;;;;4943023;29;20067;-63
2020/12/24 01:03:28;;;;;;;2.47;0.68;;;;;;;;;;4944146;29;20094;-64
2020/12/24 01:05:54;;;;;;;2.47;0.60;;;;;;;;;;4943236;29;20050;-64
2020/12/24 01:08:20;;;;;;;3.45;0.70;;;;;;;;;;4943832;29;20039;-63
2020/12/24 01:10:46;;;;;;;1.80;0.43;;;;;;;;;;4943909;29;20035;-63
2020/12/24 01:13:12;;;;;;;2.60;0.65;;;;;;;;;;4943654;29;20047;-65
2020/12/24 01:15:37;;;;;;;2.08;0.70;;;;;;;;;;4944586;29;20062;-63
2020/12/24 01:18:03;;;;;;;4.03;0.93;;;;;;;;;;4945229;29;20358;-64
2020/12/24 01:20:29;;;;;;;1.63;0.50;;;;;;;;;;4943959;29;20055;-64
2020/12/24 01:22:55;;;;;;;2.45;0.55;;;;;;;;;;4947513;29;20042;-62
2020/12/24 01:25:21;;;;;;;4.93;0.52;;;;;;;;;;4945815;29;20665;-62
2020/12/24 01:27:46;;;;;;;2.47;0.77;;;;;;;;;;4946536;29;20063;-63
2020/12/24 01:30:12;;;;;;;3.85;0.85;;;;;;;;;;4944411;29;20518;-62
2020/12/24 01:32:38;;;;;;;2.10;0.60;;;;;;;;;;4944842;29;20043;-62
2020/12/24 01:35:04;;;;;;;2.25;0.70;;;;;;;;;;4945157;29;20134;-62
2020/12/24 01:37:30;;;;;;;2.10;0.60;;;;;;;;;;4944154;29;20047;-62
2020/12/24 01:39:56;;;;;;;2.00;0.50;;;;;;;;;;4943506;29;20050;-62
2020/12/24 01:42:22;;;;;;;2.58;0.70;;;;;;;;;;4930501;29;20050;-65
2020/12/24 01:44:48;;;;;;;1.88;0.70;;;;;;;;;;4944836;29;20039;-63
2020/12/24 01:47:17;;;;;;;1.77;0.57;;;;;;;;;;4942878;29;20062;-62
2020/12/24 01:49:43;;;;;;;6.47;0.80;;;;;;;;;;4944188;29;20066;-63
2020/12/24 01:52:27;;;;;;;1.77;0.60;;;;;;;;;;4945044;29;20209;-63
2020/12/24 01:54:53;;;;;;;2.97;0.70;;;;;;;;;;4943591;29;20046;-63
2020/12/24 01:57:19;;;;;;;1.63;0.60;;;;;;;;;;4942960;29;20039;-61
2020/12/24 01:59:45;;;;;;;2.38;0.60;;;;;;;;;;4943957;29;20090;-63
2020/12/24 02:02:11;;;;;;;2.10;0.60;;;;;;;;;;4944300;29;20055;-62
2020/12/24 02:04:36;;;;;;;2.65;0.60;;;;;;;;;;4941924;29;20055;-63
2020/12/24 02:07:02;;;;;;;3.97;0.70;;;;;;;;;;4943300;29;20043;-62
2020/12/24 02:09:28;;;;;;;1.88;0.57;;;;;;;;;;4943036;29;20086;-64
2020/12/24 02:11:54;;;;;;;3.22;0.60;;;;;;;;;;4943225;29;20146;-62
2020/12/24 02:14:20;;;;;;;1.55;0.50;;;;;;;;;;4939922;29;20071;-62
2020/12/24 02:16:46;;;;;;;2.40;0.90;;;;;;;;;;4947767;29;20047;-63
2020/12/24 02:19:12;;;;;;;2.28;0.60;;;;;;;;;;4947247;29;20515;-63
2020/12/24 02:21:38;;;;;;;3.92;0.55;;;;;;;;;;4946417;29;20075;-63
2020/12/24 02:24:03;;;;;;;2.33;0.50;;;;;;;;;;4948669;29;20487;-63
2020/12/24 02:26:30;;;;;;;1.73;0.50;;;;;;;;;;4945539;29;20440;-62
2020/12/24 02:28:55;;;;;;;2.85;0.93;;;;;;;;;;4946176;29;20071;-63
2020/12/24 02:31:21;;;;;;;1.98;0.70;;;;;;;;;;4934777;29;20039;-62
2020/12/24 02:33:47;;;;;;;2.30;0.45;;;;;;;;;;4945064;29;20128;-63
2020/12/24 02:36:13;;;;;;;1.63;0.50;;;;;;;;;;4946147;29;20673;-64
2020/12/24 02:38:39;;;;;;;1.75;0.60;;;;;;;;;;4943645;29;20398;-64
2020/12/24 02:41:05;;;;;;;1.92;0.50;;;;;;;;;;4947575;29;20050;-64
2020/12/24 02:43:30;;;;;;;1.90;0.60;;;;;;;;;;4949933;29;20042;-65
2020/12/24 02:45:57;;;;;;;1.83;0.40;;;;;;;;;;4933383;29;20096;-63
2020/12/24 02:48:22;;;;;;;2.05;0.50;;;;;;;;;;4944467;29;20042;-64
2020/12/24 02:50:48;;;;;;;4.22;0.70;;;;;;;;;;4945928;29;20063;-63
2020/12/24 02:53:14;;;;;;;2.08;0.60;;;;;;;;;;4947343;29;20043;-64
2020/12/24 02:55:40;;;;;;;2.20;0.60;;;;;;;;;;4946071;29;20044;-64
2020/12/24 02:58:06;;;;;;;1.58;0.60;;;;;;;;;;4946651;29;20043;-64
2020/12/24 03:00:32;;;;;;;2.22;0.50;;;;;;;;;;4935207;29;20047;-64
2020/12/24 03:02:58;;;;;;;2.53;0.60;;;;;;;;;;4947528;29;20043;-64
2020/12/24 03:05:23;;;;;;;2.10;0.60;;;;;;;;;;4944871;29;20057;-64
2020/12/24 03:07:50;;;;;;;2.45;0.60;;;;;;;;;;4945346;29;20039;-63
2020/12/24 03:10:16;;;;;;;2.35;0.70;;;;;;;;;;4946523;29;20054;-62
2020/12/24 03:12:42;;;;;;;3.13;0.98;;;;;;;;;;4945019;29;20066;-63
2020/12/24 03:15:08;;;;;;;2.85;0.73;;;;;;;;;;4941857;29;20048;-64
2020/12/24 03:17:34;;;;;;;4.32;0.80;;;;;;;;;;4934850;29;20937;-64
2020/12/24 03:20:00;;;;;;;2.13;0.60;;;;;;;;;;4946372;29;20071;-63
2020/12/24 03:22:26;;;;;;;2.60;0.80;;;;;;;;;;4943190;28;20053;-63
2020/12/24 03:24:52;;;;;;;2.90;0.60;;;;;;;;;;4944779;29;20047;-62
2020/12/24 03:27:18;;;;;;;2.72;0.50;;;;;;;;;;4927920;29;20055;-63
2020/12/24 03:29:43;;;;;;;2.33;0.65;;;;;;;;;;4942580;29;20389;-63
2020/12/24 03:32:09;;;;;;;2.40;0.65;;;;;;;;;;4945848;29;20679;-63
2020/12/24 03:34:35;;;;;;;2.28;0.68;;;;;;;;;;4944546;29;20551;-64
2020/12/24 03:37:01;;;;;;;2.40;0.60;;;;;;;;;;4947345;29;20536;-63
2020/12/24 03:39:27;;;;;;;3.38;0.70;;;;;;;;;;4943358;29;20076;-63
2020/12/24 03:41:53;;;;;;;2.17;0.60;;;;;;;;;;4946440;29;20123;-63
2020/12/24 03:44:19;;;;;;;2.47;0.60;;;;;;;;;;4944257;29;20075;-64
2020/12/24 03:46:45;;;;;;;2.08;0.60;;;;;;;;;;4944603;29;20106;-64
2020/12/24 03:49:10;;;;;;;3.78;0.70;;;;;;;;;;4944518;29;20043;-63
2020/12/24 03:51:36;;;;;;;3.30;0.70;;;;;;;;;;4927233;29;20115;-62
2020/12/24 03:54:02;;;;;;;2.28;0.60;;;;;;;;;;4945945;29;21003;-63
2020/12/24 03:56:28;;;;;;;3.13;0.77;;;;;;;;;;4942859;29;20040;-63
2020/12/24 03:58:54;;;;;;;1.85;0.60;;;;;;;;;;4945017;29;20255;-63
2020/12/24 04:01:20;;;;;;;3.80;0.60;;;;;;;;;;4943072;29;20051;-63
2020/12/24 04:03:46;;;;;;;2.45;0.55;;;;;;;;;;4936267;29;20044;-63
2020/12/24 04:06:12;;;;;;;2.47;0.60;;;;;;;;;;4926762;29;20115;-63
2020/12/24 04:08:37;;;;;;;2.97;0.93;;;;;;;;;;4944816;29;20107;-62
2020/12/24 04:11:03;;;;;;;3.10;0.60;;;;;;;;;;4945758;29;20146;-62
2020/12/24 04:13:29;;;;;;;2.15;0.60;;;;;;;;;;4942918;29;20043;-63
2020/12/24 04:15:55;;;;;;;1.92;0.57;;;;;;;;;;4942784;29;20043;-62
2020/12/24 04:18:21;;;;;;;4.07;0.55;;;;;;;;;;4943016;29;20039;-62
2020/12/24 04:20:47;;;;;;;2.13;0.50;;;;;;;;;;4945509;29;20067;-62
2020/12/24 04:23:13;;;;;;;1.25;0.43;;;;;;;;;;4943702;29;20039;-62
2020/12/24 04:25:41;;;;;;;3.17;0.63;;;;;;;;;;4931721;29;20107;-62
2020/12/24 04:28:07;;;;;;;2.65;0.60;;;;;;;;;;4945111;29;20046;-62
2020/12/24 04:30:33;;;;;;;4.93;0.80;;;;;;;;;;4942960;29;20039;-62
2020/12/24 04:32:59;;;;;;;1.52;0.40;;;;;;;;;;4935393;29;20035;-62
2020/12/24 04:35:25;;;;;;;2.13;0.60;;;;;;;;;;4941149;29;20047;-63
2020/12/24 04:37:51;;;;;;;4.20;0.70;;;;;;;;;;4944676;29;20067;-63
2020/12/24 04:40:17;;;;;;;1.25;0.40;;;;;;;;;;4941190;29;20532;-63
2020/12/24 04:42:43;;;;;;;1.30;0.40;;;;;;;;;;4942456;29;20043;-63
2020/12/24 04:45:09;;;;;;;1.38;0.40;;;;;;;;;;4941866;29;20043;-63
2020/12/24 04:47:38;;;;;;;1.55;0.50;;;;;;;;;;4942971;29;20035;-63
2020/12/24 04:50:04;;;;;;;3.42;0.50;;;;;;;;;;4943606;29;20040;-63
2020/12/24 04:52:30;;;;;;;1.40;0.50;;;;;;;;;;4942227;29;20054;-63
2020/12/24 04:54:57;;;;;;;4.18;0.60;;;;;;;;;;4945170;29;20040;-63
2020/12/24 04:57:23;;;;;;;1.33;0.50;;;;;;;;;;4934624;29;20111;-63
2020/12/24 04:59:49;;;;;;;1.33;0.50;;;;;;;;;;4943617;29;20074;-63
2020/12/24 05:02:15;;;;;;;2.58;0.60;;;;;;;;;;4942623;29;20061;-62
2020/12/24 05:04:41;;;;;;;1.65;0.50;;;;;;;;;;4923050;29;20060;-63
2020/12/24 05:07:08;;;;;;;5.50;0.68;;;;;;;;;;4924364;29;20044;-62
2020/12/24 05:09:34;;;;;;;2.13;0.50;;;;;;;;;;4908493;29;20040;-62
2020/12/24 05:12:00;;;;;;;1.52;0.50;;;;;;;;;;4924186;29;20036;-62
2020/12/24 05:14:27;;;;;;;2.15;0.60;;;;;;;;;;4926844;29;20117;-62
2020/12/24 05:16:57;;;;;;;2.15;0.57;;;;;;;;;;4924590;29;20103;-62
2020/12/24 05:19:23;;;;;;;3.15;0.65;;;;;;;;;;4922703;29;20040;-61
2020/12/24 05:21:49;;;;;;;2.08;0.50;;;;;;;;;;4924800;29;20149;-62
2020/12/24 05:24:23;;;;;;;1.63;0.50;;;;;;;;;;4925247;29;20080;-63
2020/12/24 05:26:49;;;;;;;1.10;0.40;;;;;;;;;;4922149;29;20405;-63
2020/12/24 05:29:15;;;;;;;1.50;0.40;;;;;;;;;;4922679;29;20040;-63
2020/12/24 05:31:41;;;;;;;2.85;0.40;;;;;;;;;;4923636;29;20107;-63
2020/12/24 05:34:06;;;;;;;2.15;0.60;;;;;;;;;;4923425;29;20043;-63
2020/12/24 05:36:32;;;;;;;2.40;0.60;;;;;;;;;;4922905;29;20049;-63
2020/12/24 05:38:58;;;;;;;1.95;0.60;;;;;;;;;;4925557;29;20064;-64
2020/12/24 05:41:28;;;;;;;1.60;0.50;;;;;;;;;;4925446;29;20758;-64
2020/12/24 05:43:58;;;;;;;1.77;0.50;;;;;;;;;;4930187;29;20051;-63
2020/12/24 05:46:26;;;;;;;2.35;0.60;;;;;;;;;;4926839;29;20060;-62
2020/12/24 05:48:51;;;;;;;1.30;0.52;;;;;;;;;;4928284;29;20086;-63
2020/12/24 05:51:21;;;;;;;2.20;0.60;;;;;;;;;;4928861;29;20048;-63
2020/12/24 05:53:47;;;;;;;2.45;0.52;;;;;;;;;;4928815;29;20043;-63
2020/12/24 05:56:22;;;;;;;2.60;0.60;;;;;;;;;;4929118;29;20099;-63
2020/12/24 05:58:49;;;;;;;1.70;0.60;;;;;;;;;;4927536;29;20075;-63
2020/12/24 06:01:15;;;;;;;2.60;0.60;;;;;;;;;;4926606;29;20056;-62
2020/12/24 06:04:13;;;;;;;2.40;0.50;;;;;;;;;;4928157;29;20063;-63
2020/12/24 06:06:43;;;;;;;2.05;0.60;;;;;;;;;;4876983;29;20044;-63
2020/12/24 06:09:17;;;;;;;1.52;0.50;;;;;;;;;;4947376;29;20043;-63
2020/12/24 06:11:47;;;;;;;1.25;0.50;;;;;;;;;;4946794;29;20031;-62
2020/12/24 06:14:14;;;;;;;1.50;0.40;;;;;;;;;;4948924;29;20050;-63
2020/12/24 06:16:40;;;;;;;1.67;0.50;;;;;;;;;;4945903;29;20039;-63
2020/12/24 06:19:05;;;;;;;1.17;0.40;;;;;;;;;;4947236;29;20058;-63
2020/12/24 06:21:33;;;;;;;1.98;0.57;;;;;;;;;;4946879;29;20051;-63
2020/12/24 06:23:59;;;;;;;2.17;0.50;;;;;;;;;;4947571;29;20047;-63
2020/12/24 06:26:36;;;;;;;2.70;0.50;;;;;;;;;;4947035;29;20126;-62
2020/12/24 06:29:03;;;;;;;1.60;0.50;;;;;;;;;;4931409;29;20645;-63
2020/12/24 06:31:29;;;;;;;2.05;0.52;;;;;;;;;;4948844;29;20039;-64
2020/12/24 06:33:56;;;;;;;1.77;0.50;;;;;;;;;;4948286;29;20043;-63
2020/12/24 06:36:35;;;;;;;2.55;0.60;;;;;;;;;;4926956;29;20054;-63
2020/12/24 06:39:00;;;;;;;2.63;0.65;;;;;;;;;;4929740;29;20336;-64
2020/12/24 06:41:28;;;;;;;2.35;0.50;;;;;;;;;;4947244;29;20512;-64
2020/12/24 06:43:54;;;;;;;1.75;0.50;;;;;;;;;;4948417;29;20107;-64
2020/12/24 06:46:20;;;;;;;3.08;0.50;;;;;;;;;;4948623;29;20634;-64
2020/12/24 06:49:03;;;;;;;1.25;0.50;;;;;;;;;;4945871;29;20062;-63
2020/12/24 06:51:48;;;;;;;2.38;0.70;;;;;;;;;;4948390;29;20050;-63
2020/12/24 06:54:21;;;;;;;2.28;0.52;;;;;;;;;;4948152;29;20040;-64
2020/12/24 06:56:47;;;;;;;3.03;0.65;;;;;;;;;;4945424;29;20044;-63
2020/12/24 06:59:20;;;;;;;1.67;0.57;;;;;;;;;;4946443;29;20851;-63
2020/12/24 07:02:04;;;;;;;2.70;0.60;;;;;;;;;;4946755;29;20219;-63
2020/12/24 07:04:40;;;;;;;3.17;0.65;;;;;;;;;;4945959;29;21036;-63
2020/12/24 07:07:09;;;;;;;2.40;0.70;;;;;;;;;;4948202;29;20039;-64
2020/12/24 07:09:35;;;;;;;3.75;0.60;;;;;;;;;;4926309;29;20040;-63
2020/12/24 07:12:01;;;;;;;2.65;0.80;;;;;;;;;;4945461;29;20129;-63
2020/12/24 07:14:30;;;;;;;2.00;0.50;;;;;;;;;;4944416;29;22566;-64
2020/12/24 07:16:57;;;;;;;2.35;0.60;;;;;;;;;;4946339;29;20050;-63
2020/12/24 07:19:23;;;;;;;2.60;0.60;;;;;;;;;;4944781;29;20070;-63
2020/12/24 07:21:50;;;;;;;2.00;0.60;;;;;;;;;;4947135;29;20080;-64
2020/12/24 07:24:17;;;;;;;2.53;0.50;;;;;;;;;;4947851;29;20043;-62
2020/12/24 07:26:43;;;;;;;1.42;0.50;;;;;;;;;;4946538;29;20039;-63
2020/12/24 07:29:12;;;;;;;1.90;0.50;;;;;;;;;;4946791;29;20036;-63
2020/12/24 07:31:38;;;;;;;1.25;0.40;;;;;;;;;;4944781;29;20047;-63
2020/12/24 07:34:04;;;;;;;2.55;0.60;;;;;;;;;;4944798;29;20148;-63
2020/12/24 07:36:30;;;;;;;1.67;0.50;;;;;;;;;;4944577;29;20047;-63
2020/12/24 07:38:56;;;;;;;1.98;0.65;;;;;;;;;;4946003;29;20039;-63
2020/12/24 07:41:22;;;;;;;1.55;0.47;;;;;;;;;;4946327;29;20158;-63
2020/12/24 07:43:48;;;;;;;1.50;0.43;;;;;;;;;;4947264;29;20058;-63
2020/12/24 07:46:16;;;;;;;1.98;0.60;;;;;;;;;;4944919;29;20047;-63
2020/12/24 07:48:43;;;;;;;2.22;0.60;;;;;;;;;;4945598;29;20082;-63
2020/12/24 07:51:09;;;;;;;1.85;0.60;;;;;;;;;;4945923;29;20032;-63
2020/12/24 07:53:35;;;;;;;1.85;0.60;;;;;;;;;;4945230;29;20099;-63
2020/12/24 07:56:05;;;;;;;2.08;0.60;;;;;;;;;;4946102;29;20788;-63
2020/12/24 07:58:31;;;;;;;1.33;0.40;;;;;;;;;;4944137;29;20059;-63
2020/12/24 08:01:01;;;;;;;2.03;0.60;;;;;;;;;;4946593;29;20047;-62
2020/12/24 08:03:27;;;;;;;2.40;0.60;;;;;;;;;;4943429;29;20039;-63
2020/12/24 08:06:00;;;;;;;4.18;0.50;;;;;;;;;;4945506;29;20612;-63
2020/12/24 08:08:26;;;;;;;1.52;0.45;;;;;;;;;;4945307;29;20043;-63
2020/12/24 08:10:52;;;;;;;2.22;0.60;;;;;;;;;;4946005;29;20042;-63
2020/12/24 08:13:21;;;;;;;1.17;0.50;;;;;;;;;;4945548;29;20530;-63
2020/12/24 08:15:47;;;;;;;1.52;0.43;;;;;;;;;;4944983;29;20047;-64
2020/12/24 08:18:14;;;;;;;3.85;0.50;;;;;;;;;;4945088;29;20042;-64
2020/12/24 08:21:00;;;;;;;2.35;0.65;;;;;;;;;;4945566;29;20131;-64
2020/12/24 08:23:48;;;;;;;2.05;0.60;;;;;;;;;;4945014;29;20035;-63
2020/12/24 08:26:15;;;;;;;1.92;0.50;;;;;;;;;;4943216;29;20044;-63
2020/12/24 08:29:01;;;;;;;4.97;0.57;;;;;;;;;;4944587;29;20039;-63
2020/12/24 08:31:28;;;;;;;1.95;0.60;;;;;;;;;;4944741;29;20046;-63
2020/12/24 08:33:57;;;;;;;4.28;0.50;;;;;;;;;;4946501;29;20181;-64
2020/12/24 08:36:26;;;;;;;3.40;0.60;;;;;;;;;;4945739;29;20043;-63
2020/12/24 08:39:12;;;;;;;1.85;0.57;;;;;;;;;;4945279;29;20133;-64
2020/12/24 08:41:53;;;;;;;1.67;0.55;;;;;;;;;;4944141;29;20157;-64
2020/12/24 08:44:20;;;;;;;2.28;0.60;;;;;;;;;;4945941;29;20426;-64
2020/12/24 08:46:46;;;;;;;1.52;0.50;;;;;;;;;;4944469;29;20067;-64
2020/12/24 08:49:25;;;;;;;1.63;0.50;;;;;;;;;;4946097;29;20039;-64
2020/12/24 08:52:06;;;;;;;4.65;0.55;;;;;;;;;;4944485;29;20440;-63
2020/12/24 08:54:32;;;;;;;2.50;0.70;;;;;;;;;;4943221;29;20057;-63
2020/12/24 08:56:59;;;;;;;3.05;0.68;;;;;;;;;;4942414;29;20047;-63
2020/12/24 08:59:24;;;;;;;1.75;0.50;;;;;;;;;;4944958;29;20893;-63
2020/12/24 09:01:50;;;;;;;2.20;0.68;;;;;;;;;;4945874;29;20089;-64
2020/12/24 09:04:17;;;;;;;4.65;0.70;;;;;;;;;;4944231;29;20054;-64
2020/12/24 09:06:44;;;;;;;2.35;0.50;;;;;;;;;;4944611;29;20096;-64
2020/12/24 09:09:19;;;;;;;2.85;0.50;;;;;;;;;;4944153;29;20430;-64
2020/12/24 09:11:45;;;;;;;4.10;1.08;;;;;;;;;;4943615;29;20040;-64
2020/12/24 09:14:15;;;;;;;4.97;0.50;;;;;;;;;;4943905;29;20038;-64
2020/12/24 09:16:52;;;;;;;1.20;0.45;;;;;;;;;;4943424;29;20125;-64
2020/12/24 09:19:18;;;;;;;2.13;0.70;;;;;;;;;;4945956;29;20035;-64
2020/12/24 09:21:50;;;;;;;3.58;0.60;;;;;;;;;;4943738;28;20099;-63
2020/12/24 09:24:15;;;;;;;2.03;0.50;;;;;;;;;;4943428;29;20737;-63
2020/12/24 09:26:54;;;;;;;3.38;0.50;;;;;;;;;;4945150;29;20063;-63
2020/12/24 09:29:21;;;;;;;2.50;0.60;;;;;;;;;;4943664;29;20042;-64
2020/12/24 09:31:58;;;;;;;2.13;0.50;;;;;;;;;;4944122;29;20116;-63
2020/12/24 09:34:24;;;;;;;2.50;0.50;;;;;;;;;;4944761;29;20107;-64
2020/12/24 09:36:51;;;;;;;2.00;0.60;;;;;;;;;;4944355;29;20039;-63
2020/12/24 09:39:17;;;;;;;2.40;0.50;;;;;;;;;;4942590;29;20392;-64
2020/12/24 09:41:44;;;;;;;1.85;0.50;;;;;;;;;;4944990;29;20484;-63
2020/12/24 09:44:10;;;;;;;2.28;0.57;;;;;;;;;;4946491;29;20043;-63
2020/12/24 09:46:36;;;;;;;2.60;0.60;;;;;;;;;;4942285;29;20035;-63
2020/12/24 09:49:02;;;;;;;1.52;0.40;;;;;;;;;;4944586;29;20039;-64
2020/12/24 09:51:31;;;;;;;2.05;0.60;;;;;;;;;;4930511;29;20048;-64
2020/12/24 09:53:56;;;;;;;2.15;0.50;;;;;;;;;;4944285;29;20035;-64
2020/12/24 09:56:22;;;;;;;2.65;0.70;;;;;;;;;;4943902;29;20046;-64
2020/12/24 09:58:48;;;;;;;7.03;0.63;;;;;;;;;;4943817;29;20046;-63
2020/12/24 10:01:17;;;;;;;3.00;0.90;;;;;;;;;;4943279;29;20059;-64
2020/12/24 10:03:43;;;;;;;2.30;0.50;;;;;;;;;;4943497;29;20038;-63
2020/12/24 10:06:09;;;;;;;2.97;0.60;;;;;;;;;;4945081;29;20047;-63
2020/12/24 10:08:35;;;;;;;4.50;0.65;;;;;;;;;;4942825;29;20039;-63
2020/12/24 10:11:01;;;;;;;1.73;0.50;;;;;;;;;;4943450;29;20047;-64
2020/12/24 10:13:27;;;;;;;2.55;0.52;;;;;;;;;;4941068;29;20054;-63
2020/12/24 10:15:53;;;;;;;1.83;0.50;;;;;;;;;;4942341;29;20501;-63
2020/12/24 10:18:19;;;;;;;4.10;0.75;;;;;;;;;;4943136;29;20043;-64
2020/12/24 10:20:44;;;;;;;2.78;0.55;;;;;;;;;;4932558;29;20043;-63
2020/12/24 10:23:10;;;;;;;4.03;0.60;;;;;;;;;;4944426;29;20051;-62
2020/12/24 10:25:40;;;;;;;2.30;0.55;;;;;;;;;;4942465;29;20035;-61
2020/12/24 10:28:06;;;;;;;1.95;0.60;;;;;;;;;;4945422;29;20054;-61
2020/12/24 10:30:32;;;;;;;1.17;0.70;;;;;;;;;;4943323;29;20063;-61
2020/12/24 10:32:58;;;;;;;1.77;0.50;;;;;;;;;;4931405;29;20039;-61
2020/12/24 10:35:24;;;;;;;3.88;0.70;;;;;;;;;;4933289;29;20043;-64
2020/12/24 10:37:49;;;;;;;2.45;0.52;;;;;;;;;;4942291;28;20047;-63
2020/12/24 10:40:15;;;;;;;3.13;0.60;;;;;;;;;;4947724;29;20046;-63
2020/12/24 10:42:46;;;;;;;3.00;0.50;;;;;;;;;;4945962;29;20047;-63
2020/12/24 10:45:12;;;;;;;1.88;0.60;;;;;;;;;;4936518;29;20055;-63
2020/12/24 10:47:38;;;;;;;1.55;0.50;;;;;;;;;;4945466;29;20532;-63
2020/12/24 10:50:03;;;;;;;3.70;0.80;;;;;;;;;;4945872;29;20043;-63
2020/12/24 10:52:29;;;;;;;3.20;0.55;;;;;;;;;;4946723;29;20047;-63
2020/12/24 10:54:55;;;;;;;2.58;0.68;;;;;;;;;;4947905;29;20036;-63
2020/12/24 10:57:21;;;;;;;2.95;0.50;;;;;;;;;;4946770;29;20035;-63
2020/12/24 10:59:47;;;;;;;5.32;0.60;;;;;;;;;;4946422;29;20073;-63
2020/12/24 11:02:13;;;;;;;3.67;0.70;;;;;;;;;;4947411;29;20104;-63
2020/12/24 11:04:38;;;;;;;1.40;0.40;;;;;;;;;;4945513;29;20067;-63
2020/12/24 11:07:04;;;;;;;4.80;0.60;;;;;;;;;;4947475;29;20040;-63
2020/12/24 11:09:30;;;;;;;2.13;0.60;;;;;;;;;;4945271;29;20043;-63
2020/12/24 11:11:56;;;;;;;2.28;0.50;;;;;;;;;;4945507;29;20493;-63
2020/12/24 11:14:22;;;;;;;5.05;0.70;;;;;;;;;;4946539;29;20083;-62
2020/12/24 11:16:48;;;;;;;3.45;0.70;;;;;;;;;;4944692;29;20039;-63
2020/12/24 11:19:14;;;;;;;2.15;0.50;;;;;;;;;;4945075;29;20036;-63
2020/12/24 11:21:40;;;;;;;2.30;0.75;;;;;;;;;;4944805;29;21148;-63
2020/12/24 11:24:06;;;;;;;2.05;0.60;;;;;;;;;;4944971;29;20166;-63
2020/12/24 11:26:36;;;;;;;1.80;0.60;;;;;;;;;;4947244;29;20123;-63
2020/12/24 11:29:02;;;;;;;2.25;0.63;;;;;;;;;;4946977;29;20044;-63
2020/12/24 11:31:29;;;;;;;2.50;0.65;;;;;;;;;;4944902;29;20044;-63
2020/12/24 11:33:55;;;;;;;4.68;0.68;;;;;;;;;;4945828;29;20051;-63
2020/12/24 11:36:21;;;;;;;2.80;0.70;;;;;;;;;;4945376;29;20032;-63
2020/12/24 11:38:50;;;;;;;2.63;0.68;;;;;;;;;;4946720;29;20040;-64
2020/12/24 11:41:20;;;;;;;4.30;0.70;;;;;;;;;;4946068;29;20055;-63
2020/12/24 11:43:46;;;;;;;2.20;0.70;;;;;;;;;;4944101;29;20051;-63
2020/12/24 11:46:13;;;;;;;2.78;0.70;;;;;;;;;;4930036;29;20043;-63
2020/12/24 11:48:39;;;;;;;6.50;0.80;;;;;;;;;;4946303;29;20043;-63
2020/12/24 11:51:09;;;;;;;4.00;0.80;;;;;;;;;;4946070;29;20164;-63
2020/12/24 11:53:38;;;;;;;3.33;0.68;;;;;;;;;;4945219;29;20095;-63
2020/12/24 11:56:11;;;;;;;4.88;0.80;;;;;;;;;;4946001;29;20561;-64
2020/12/24 11:58:38;;;;;;;4.20;0.90;;;;;;;;;;4945267;29;20460;-63
2020/12/24 12:01:03;;;;;;;3.92;0.75;;;;;;;;;;4946562;29;20321;-63
2020/12/24 12:03:29;;;;;;;2.60;0.70;;;;;;;;;;4929380;29;20043;-63
2020/12/24 12:05:55;;;;;;;3.22;0.55;;;;;;;;;;4944223;29;20132;-63
2020/12/24 12:08:22;;;;;;;3.63;0.70;;;;;;;;;;4945660;29;20083;-63
2020/12/24 12:10:47;;;;;;;4.43;0.90;;;;;;;;;;4944534;29;20044;-63
2020/12/24 12:13:13;;;;;;;3.92;0.82;;;;;;;;;;4946671;29;20035;-63
2020/12/24 12:15:42;;;;;;;4.22;0.73;;;;;;;;;;4944390;29;20057;-63
2020/12/24 12:18:08;;;;;;;3.03;0.70;;;;;;;;;;4946019;29;20043;-63
2020/12/24 12:20:34;;;;;;;3.92;1.05;;;;;;;;;;4944384;29;20277;-63
2020/12/24 12:23:00;;;;;;;2.35;0.60;;;;;;;;;;4946310;29;20054;-63
2020/12/24 12:25:25;;;;;;;5.38;0.70;;;;;;;;;;4926018;29;20048;-63
2020/12/24 12:27:51;;;;;;;2.83;0.70;;;;;;;;;;4944832;29;20483;-63
2020/12/24 12:30:17;;;;;;;4.38;0.82;;;;;;;;;;4945365;29;20559;-64
2020/12/24 12:32:43;;;;;;;2.38;0.60;;;;;;;;;;4943212;29;20054;-63
2020/12/24 12:35:09;;;;;;;4.75;1.40;;;;;;;;;;4944775;29;20772;-64
2020/12/24 12:37:54;;;;;;;2.60;0.52;;;;;;;;;;4891619;29;20058;-64
2020/12/24 12:40:20;;;;;;;2.13;0.50;;;;;;;;;;4893098;29;20040;-64
2020/12/24 12:42:46;;;;;;;4.80;0.75;;;;;;;;;;4892943;29;20041;-64
2020/12/24 12:45:12;;;;;;;2.35;0.60;;;;;;;;;;4893450;29;20086;-64
2020/12/24 12:47:41;;;;;;;3.65;0.60;;;;;;;;;;4893521;29;20125;-64
2020/12/24 12:50:08;;;;;;;1.95;0.60;;;;;;;;;;4894224;29;20064;-63
2020/12/24 12:52:34;;;;;;;2.30;0.70;;;;;;;;;;4892970;29;20045;-63
2020/12/24 12:55:00;;;;;;;1.77;0.60;;;;;;;;;;4893933;29;20044;-63
2020/12/24 12:57:26;;;;;;;3.83;0.75;;;;;;;;;;4877094;29;20052;-64
2020/12/24 12:59:52;;;;;;;2.80;0.60;;;;;;;;;;4893012;29;20131;-63
2020/12/24 13:02:18;;;;;;;4.28;0.60;;;;;;;;;;4875825;29;20546;-63
2020/12/24 13:04:43;;;;;;;2.10;0.50;;;;;;;;;;4893013;29;20053;-63
2020/12/24 13:07:09;;;;;;;2.50;0.50;;;;;;;;;;4891370;29;20131;-64
2020/12/24 13:09:35;;;;;;;2.97;0.60;;;;;;;;;;4892039;29;20048;-63
2020/12/24 13:12:01;;;;;;;2.33;0.50;;;;;;;;;;4894018;29;20047;-64
2020/12/24 13:14:27;;;;;;;1.67;0.50;;;;;;;;;;4897659;29;20040;-63
2020/12/24 13:16:53;;;;;;;4.88;0.60;;;;;;;;;;4944779;29;20058;-64
2020/12/24 13:19:19;;;;;;;2.28;0.50;;;;;;;;;;4943426;29;20098;-64
2020/12/24 13:21:45;;;;;;;3.17;0.68;;;;;;;;;;4945361;29;20047;-64
2020/12/24 13:24:11;;;;;;;5.07;0.77;;;;;;;;;;4933058;29;20042;-63
2020/12/24 13:26:37;;;;;;;3.25;0.50;;;;;;;;;;4943410;29;20032;-63
2020/12/24 13:29:03;;;;;;;2.10;0.50;;;;;;;;;;4943818;29;20059;-63
2020/12/24 13:31:29;;;;;;;2.17;0.60;;;;;;;;;;4941632;29;20044;-58
2020/12/24 13:33:56;;;;;;;2.67;0.63;;;;;;;;;;4944257;29;20046;-66
2020/12/24 13:36:22;;;;;;;3.08;0.70;;;;;;;;;;4942510;29;21027;-63
2020/12/24 13:38:48;;;;;;;2.70;0.60;;;;;;;;;;4944280;29;20062;-64
2020/12/24 13:41:14;;;;;;;2.20;0.60;;;;;;;;;;4940998;29;20181;-64
2020/12/24 13:43:40;;;;;;;3.03;0.60;;;;;;;;;;4944413;29;20039;-64
2020/12/24 13:46:10;;;;;;;5.13;1.05;;;;;;;;;;4941634;29;20040;-64
2020/12/24 13:48:36;;;;;;;2.63;0.60;;;;;;;;;;4944002;29;20950;-64
2020/12/24 13:51:03;;;;;;;3.25;0.75;;;;;;;;;;4944105;29;20039;-64
2020/12/24 13:53:29;;;;;;;2.13;0.60;;;;;;;;;;4929972;29;20043;-63
2020/12/24 13:55:55;;;;;;;3.85;0.70;;;;;;;;;;4942419;29;20046;-63
2020/12/24 13:58:20;;;;;;;2.25;0.63;;;;;;;;;;4944643;29;20099;-63
2020/12/24 14:00:46;;;;;;;2.33;0.70;;;;;;;;;;4943391;29;20692;-63
2020/12/24 14:03:12;;;;;;;8.50;0.82;;;;;;;;;;4933674;29;20066;-64
2020/12/24 14:05:38;;;;;;;4.95;0.80;;;;;;;;;;4943812;29;20054;-63
2020/12/24 14:08:04;;;;;;;4.18;0.77;;;;;;;;;;4946564;28;20086;-64
2020/12/24 14:10:30;;;;;;;3.67;0.80;;;;;;;;;;4947891;29;20128;-64
2020/12/24 14:12:56;;;;;;;3.58;0.80;;;;;;;;;;4943995;28;20061;-65
2020/12/24 14:15:21;;;;;;;3.05;0.70;;;;;;;;;;4947079;29;20503;-64
2020/12/24 14:17:47;;;;;;;4.60;0.70;;;;;;;;;;4949558;29;20497;-63
2020/12/24 14:20:13;;;;;;;3.17;0.90;;;;;;;;;;4945895;29;20039;-64
2020/12/24 14:22:39;;;;;;;3.17;0.90;;;;;;;;;;4945510;29;20121;-63
2020/12/24 14:25:05;;;;;;;3.55;0.80;;;;;;;;;;4947660;29;20057;-63
2020/12/24 14:27:31;;;;;;;4.15;0.80;;;;;;;;;;4945775;29;20548;-62
2020/12/24 14:29:57;;;;;;;3.65;0.80;;;;;;;;;;4946890;29;20047;-63
2020/12/24 14:32:23;;;;;;;3.28;0.90;;;;;;;;;;4928918;29;20031;-63
2020/12/24 14:34:48;;;;;;;3.45;0.80;;;;;;;;;;4947792;29;20043;-63
2020/12/24 14:37:14;;;;;;;4.53;0.85;;;;;;;;;;4945882;29;20385;-63
2020/12/24 14:39:40;;;;;;;3.67;0.70;;;;;;;;;;4947773;29;20114;-63
2020/12/24 14:42:07;;;;;;;4.03;0.70;;;;;;;;;;4946965;29;20107;-63